createdAt,value
2016-12-14T00:00:20.198Z,1021.06
2016-12-14T00:01:00.677Z,1021.09
2016-12-14T00:01:41.145Z,1021.07
2016-12-14T00:02:21.633Z,1021.03
2016-12-14T00:03:02.098Z,1021.01
2016-12-14T00:03:42.578Z,1021.03
2016-12-14T00:04:23.061Z,1021.06
2016-12-14T00:05:03.554Z,1021.03
2016-12-14T00:05:44.024Z,1021.01
2016-12-14T00:06:24.490Z,1021.05
2016-12-14T00:07:04.963Z,1021.05
2016-12-14T00:07:45.442Z,1021.06
2016-12-14T00:08:25.916Z,1021.07
2016-12-14T00:09:06.396Z,1021.04
2016-12-14T00:09:46.887Z,1021.07
2016-12-14T00:10:27.402Z,1021.05
2016-12-14T00:11:07.849Z,1021.04
2016-12-14T00:11:48.409Z,1021.03
2016-12-14T00:12:28.883Z,1021.03
2016-12-14T00:13:09.363Z,1021.06
2016-12-14T00:13:49.857Z,1021.05
2016-12-14T00:14:30.326Z,1021.03
2016-12-14T00:15:10.794Z,1021.03
2016-12-14T00:15:51.276Z,1021.04
2016-12-14T00:16:31.764Z,1021.06
2016-12-14T00:17:12.304Z,1021.01
2016-12-14T00:17:52.781Z,1021.06
2016-12-14T00:18:33.218Z,1021.06
2016-12-14T00:19:13.721Z,1021.08
2016-12-14T00:19:54.209Z,1021.07
2016-12-14T00:20:34.686Z,1021.04
2016-12-14T00:21:15.175Z,1021.03
2016-12-14T00:21:55.677Z,1021.04
2016-12-14T00:22:36.119Z,1021.06
2016-12-14T00:23:16.631Z,1021.03
2016-12-14T00:23:57.121Z,1020.99
2016-12-14T00:24:37.620Z,1021
2016-12-14T00:25:18.080Z,1021.05
2016-12-14T00:25:58.559Z,1021.03
2016-12-14T00:26:39.026Z,1021.02
2016-12-14T00:27:19.459Z,1021.02
2016-12-14T00:27:59.965Z,1020.98
2016-12-14T00:28:40.455Z,1021
2016-12-14T00:29:20.921Z,1021.01
2016-12-14T00:30:01.421Z,1021
2016-12-14T00:30:41.896Z,1021.03
2016-12-14T00:31:22.399Z,1021.02
2016-12-14T00:32:02.939Z,1021
2016-12-14T00:32:43.423Z,1020.99
2016-12-14T00:33:23.852Z,1021.01
2016-12-14T00:34:04.363Z,1021.04
2016-12-14T00:34:44.797Z,1021.01
2016-12-14T00:35:25.274Z,1021.04
2016-12-14T00:36:05.745Z,1021.03
2016-12-14T00:36:46.203Z,1021.02
2016-12-14T00:37:26.676Z,1021.05
2016-12-14T00:38:07.166Z,1021.04
2016-12-14T00:38:47.639Z,1021.05
2016-12-14T00:39:28.141Z,1021.01
2016-12-14T00:40:08.653Z,1021.08
2016-12-14T00:40:49.089Z,1021.02
2016-12-14T00:41:29.543Z,1020.99
2016-12-14T00:42:10.049Z,1021.03
2016-12-14T00:42:50.471Z,1021
2016-12-14T00:43:30.961Z,1020.98
2016-12-14T00:44:11.470Z,1021.03
2016-12-14T00:44:51.917Z,1021.05
2016-12-14T00:45:32.400Z,1021.02
2016-12-14T00:46:12.872Z,1021.05
2016-12-14T00:46:53.374Z,1021.01
2016-12-14T00:47:33.849Z,1021.07
2016-12-14T00:48:14.359Z,1021.03
2016-12-14T00:48:54.848Z,1021.02
2016-12-14T00:49:35.298Z,1021.06
2016-12-14T00:50:15.790Z,1021.03
2016-12-14T00:50:56.306Z,1021.02
2016-12-14T00:51:36.720Z,1021.04
2016-12-14T00:52:17.157Z,1021.03
2016-12-14T00:52:57.638Z,1021.01
2016-12-14T00:53:38.114Z,1021.03
2016-12-14T00:54:18.613Z,1021.02
2016-12-14T00:54:59.073Z,1021.04
2016-12-14T00:55:39.558Z,1021.04
2016-12-14T00:56:20.028Z,1021.05
2016-12-14T00:57:00.543Z,1021.04
2016-12-14T00:57:41.044Z,1021.05
2016-12-14T00:58:21.559Z,1021.06
2016-12-14T00:59:02.009Z,1021.07
2016-12-14T00:59:42.458Z,1021.04
2016-12-14T01:00:22.961Z,1021.08
2016-12-14T01:01:03.417Z,1021.07
2016-12-14T01:01:43.895Z,1021.07
2016-12-14T01:02:24.374Z,1021.03
2016-12-14T01:03:04.805Z,1021.05
2016-12-14T01:03:45.283Z,1021.04
2016-12-14T01:04:25.723Z,1021.03
2016-12-14T01:05:06.185Z,1021.03
2016-12-14T01:05:46.649Z,1021.04
2016-12-14T01:06:27.103Z,1020.98
2016-12-14T01:07:07.593Z,1021.02
2016-12-14T01:07:48.028Z,1021.05
2016-12-14T01:08:28.506Z,1021.04
2016-12-14T01:09:08.936Z,1021.09
2016-12-14T01:09:49.413Z,1021.09
2016-12-14T01:10:29.868Z,1021.03
2016-12-14T01:11:10.327Z,1021.06
2016-12-14T01:11:50.794Z,1021.04
2016-12-14T01:12:31.271Z,1021.03
2016-12-14T01:13:11.742Z,1021.07
2016-12-14T01:13:52.237Z,1021.05
2016-12-14T01:14:32.730Z,1021.06
2016-12-14T01:15:13.211Z,1021.06
2016-12-14T01:15:53.702Z,1021.09
2016-12-14T01:16:34.155Z,1021.09
2016-12-14T01:17:14.629Z,1021.08
2016-12-14T01:17:55.092Z,1021.09
2016-12-14T01:18:35.537Z,1021.08
2016-12-14T01:19:16.024Z,1021.1
2016-12-14T01:19:58.408Z,1021.11
2016-12-14T01:20:38.868Z,1021.08
2016-12-14T01:21:19.361Z,1021.13
2016-12-14T01:21:59.845Z,1021.14
2016-12-14T01:22:40.306Z,1021.13
2016-12-14T01:23:20.862Z,1021.16
2016-12-14T01:24:01.370Z,1021.14
2016-12-14T01:24:41.829Z,1021.19
2016-12-14T01:25:22.304Z,1021.18
2016-12-14T01:26:02.775Z,1021.19
2016-12-14T01:26:43.223Z,1021.2
2016-12-14T01:27:23.745Z,1021.2
2016-12-14T01:28:04.250Z,1021.2
2016-12-14T01:28:44.718Z,1021.19
2016-12-14T01:29:25.190Z,1021.18
2016-12-14T01:30:05.667Z,1021.22
2016-12-14T01:30:46.121Z,1021.22
2016-12-14T01:31:26.621Z,1021.21
2016-12-14T01:32:07.115Z,1021.21
2016-12-14T01:32:47.573Z,1021.22
2016-12-14T01:33:28.080Z,1021.23
2016-12-14T01:34:08.523Z,1021.28
2016-12-14T01:34:48.991Z,1021.21
2016-12-14T01:35:29.506Z,1021.28
2016-12-14T01:36:09.920Z,1021.25
2016-12-14T01:36:50.515Z,1021.23
2016-12-14T01:37:30.981Z,1021.24
2016-12-14T01:38:11.457Z,1021.27
2016-12-14T01:38:51.954Z,1021.26
2016-12-14T01:39:32.445Z,1021.27
2016-12-14T01:40:12.941Z,1021.3
2016-12-14T01:40:53.499Z,1021.3
2016-12-14T01:41:33.961Z,1021.29
2016-12-14T01:42:14.444Z,1021.28
2016-12-14T01:42:54.940Z,1021.28
2016-12-14T01:43:35.384Z,1021.3
2016-12-14T01:44:15.835Z,1021.28
2016-12-14T01:44:56.313Z,1021.31
2016-12-14T01:45:36.764Z,1021.29
2016-12-14T01:46:17.241Z,1021.29
2016-12-14T01:46:57.700Z,1021.31
2016-12-14T01:47:38.188Z,1021.28
2016-12-14T01:48:18.640Z,1021.27
2016-12-14T01:48:59.132Z,1021.28
2016-12-14T01:49:39.570Z,1021.27
2016-12-14T01:50:20.054Z,1021.28
2016-12-14T01:51:00.737Z,1021.22
2016-12-14T01:51:41.214Z,1021.27
2016-12-14T01:52:21.668Z,1021.23
2016-12-14T01:53:02.155Z,1021.24
2016-12-14T01:53:42.584Z,1021.25
2016-12-14T01:54:23.074Z,1021.22
2016-12-14T01:55:03.602Z,1021.24
2016-12-14T01:55:44.032Z,1021.24
2016-12-14T01:56:24.502Z,1021.25
2016-12-14T01:57:04.970Z,1021.28
2016-12-14T01:57:45.504Z,1021.23
2016-12-14T01:58:25.937Z,1021.22
2016-12-14T01:59:06.408Z,1021.26
2016-12-14T01:59:46.866Z,1021.26
2016-12-14T02:00:27.342Z,1021.24
2016-12-14T02:01:07.800Z,1021.18
2016-12-14T02:01:48.259Z,1021.22
2016-12-14T02:02:28.715Z,1021.22
2016-12-14T02:03:09.210Z,1021.24
2016-12-14T02:03:49.663Z,1021.23
2016-12-14T02:04:30.155Z,1021.25
2016-12-14T02:05:10.651Z,1021.23
2016-12-14T02:05:51.080Z,1021.26
2016-12-14T02:06:31.572Z,1021.23
2016-12-14T02:07:12.033Z,1021.31
2016-12-14T02:07:52.516Z,1021.26
2016-12-14T02:08:32.965Z,1021.28
2016-12-14T02:10:36.410Z,1021.32
2016-12-14T02:11:25.216Z,1021.3
2016-12-14T02:12:14.138Z,1021.35
2016-12-14T02:13:01.510Z,1021.33
2016-12-14T02:13:48.940Z,1021.32
2016-12-14T02:15:47.905Z,1021.37
2016-12-14T02:16:36.158Z,1021.31
2016-12-14T02:17:23.028Z,1021.33
2016-12-14T02:18:09.067Z,1021.33
2016-12-14T02:18:52.154Z,1021.33
2016-12-14T02:19:32.612Z,1021.32
2016-12-14T02:20:13.084Z,1021.33
2016-12-14T02:20:53.582Z,1021.32
2016-12-14T02:21:34.028Z,1021.37
2016-12-14T02:22:14.488Z,1021.35
2016-12-14T02:22:54.908Z,1021.32
2016-12-14T02:23:35.441Z,1021.33
2016-12-14T02:24:15.904Z,1021.34
2016-12-14T02:24:56.380Z,1021.36
2016-12-14T02:25:36.861Z,1021.37
2016-12-14T02:26:17.354Z,1021.31
2016-12-14T02:26:57.816Z,1021.37
2016-12-14T02:27:38.297Z,1021.35
2016-12-14T02:28:18.753Z,1021.36
2016-12-14T02:28:59.218Z,1021.37
2016-12-14T02:29:39.736Z,1021.4
2016-12-14T02:30:20.223Z,1021.4
2016-12-14T02:31:00.767Z,1021.37
2016-12-14T02:31:41.261Z,1021.37
2016-12-14T02:32:21.718Z,1021.42
2016-12-14T02:33:02.184Z,1021.42
2016-12-14T02:33:42.671Z,1021.4
2016-12-14T02:34:23.142Z,1021.45
2016-12-14T02:35:03.632Z,1021.43
2016-12-14T02:35:44.101Z,1021.46
2016-12-14T02:36:24.585Z,1021.44
2016-12-14T02:37:05.045Z,1021.43
2016-12-14T02:37:45.497Z,1021.48
2016-12-14T02:38:25.983Z,1021.45
2016-12-14T02:39:06.457Z,1021.47
2016-12-14T02:39:46.968Z,1021.51
2016-12-14T02:40:27.420Z,1021.48
2016-12-14T02:41:07.870Z,1021.5
2016-12-14T02:41:48.363Z,1021.46
2016-12-14T02:42:28.897Z,1021.47
2016-12-14T02:43:09.352Z,1021.47
2016-12-14T02:43:49.808Z,1021.51
2016-12-14T02:44:30.304Z,1021.51
2016-12-14T02:45:10.769Z,1021.52
2016-12-14T02:45:51.248Z,1021.51
2016-12-14T02:46:31.719Z,1021.51
2016-12-14T02:47:12.204Z,1021.5
2016-12-14T02:47:52.658Z,1021.48
2016-12-14T02:48:33.140Z,1021.49
2016-12-14T02:49:13.609Z,1021.5
2016-12-14T02:49:54.121Z,1021.5
2016-12-14T02:50:34.562Z,1021.51
2016-12-14T02:51:15.007Z,1021.51
2016-12-14T02:51:55.489Z,1021.47
2016-12-14T02:52:35.945Z,1021.5
2016-12-14T02:53:16.423Z,1021.48
2016-12-14T02:53:56.863Z,1021.5
2016-12-14T02:54:37.325Z,1021.49
2016-12-14T02:55:17.809Z,1021.51
2016-12-14T02:55:58.305Z,1021.52
2016-12-14T02:56:38.766Z,1021.51
2016-12-14T02:57:19.268Z,1021.49
2016-12-14T02:57:59.745Z,1021.47
2016-12-14T02:58:40.200Z,1021.53
2016-12-14T02:59:20.675Z,1021.49
2016-12-14T03:00:01.116Z,1021.48
2016-12-14T03:00:41.611Z,1021.5
2016-12-14T03:01:22.062Z,1021.5
2016-12-14T03:02:02.535Z,1021.51
2016-12-14T03:02:43.011Z,1021.48
2016-12-14T03:03:23.560Z,1021.52
2016-12-14T03:04:04.051Z,1021.5
2016-12-14T03:04:44.525Z,1021.51
2016-12-14T03:05:25.023Z,1021.54
2016-12-14T03:06:05.530Z,1021.54
2016-12-14T03:06:45.997Z,1021.56
2016-12-14T03:07:26.428Z,1021.56
2016-12-14T03:08:06.906Z,1021.57
2016-12-14T03:08:47.363Z,1021.53
2016-12-14T03:09:27.833Z,1021.56
2016-12-14T03:10:08.297Z,1021.56
2016-12-14T03:10:48.750Z,1021.52
2016-12-14T03:11:29.202Z,1021.58
2016-12-14T03:12:09.722Z,1021.56
2016-12-14T03:12:50.211Z,1021.53
2016-12-14T03:13:30.644Z,1021.55
2016-12-14T03:14:11.109Z,1021.52
2016-12-14T03:14:51.590Z,1021.55
2016-12-14T03:15:32.065Z,1021.53
2016-12-14T03:16:12.529Z,1021.51
2016-12-14T03:16:52.989Z,1021.55
2016-12-14T03:17:33.489Z,1021.54
2016-12-14T03:18:13.940Z,1021.52
2016-12-14T03:18:54.419Z,1021.51
2016-12-14T03:19:34.865Z,1021.52
2016-12-14T03:20:15.348Z,1021.5
2016-12-14T03:20:55.787Z,1021.44
2016-12-14T03:21:36.260Z,1021.5
2016-12-14T03:22:16.746Z,1021.5
2016-12-14T03:22:57.195Z,1021.52
2016-12-14T03:23:37.655Z,1021.51
2016-12-14T03:24:18.111Z,1021.49
2016-12-14T03:24:58.626Z,1021.5
2016-12-14T03:25:39.105Z,1021.49
2016-12-14T03:26:19.565Z,1021.5
2016-12-14T03:27:00.041Z,1021.52
2016-12-14T03:27:40.489Z,1021.51
2016-12-14T03:28:20.990Z,1021.52
2016-12-14T03:29:01.439Z,1021.54
2016-12-14T03:29:41.923Z,1021.53
2016-12-14T03:30:22.372Z,1021.54
2016-12-14T03:31:02.844Z,1021.53
2016-12-14T03:31:43.333Z,1021.57
2016-12-14T03:32:23.822Z,1021.56
2016-12-14T03:33:04.296Z,1021.56
2016-12-14T03:33:44.764Z,1021.56
2016-12-14T03:34:25.263Z,1021.56
2016-12-14T03:35:05.761Z,1021.59
2016-12-14T03:35:46.205Z,1021.57
2016-12-14T03:36:26.700Z,1021.6
2016-12-14T03:37:07.126Z,1021.57
2016-12-14T03:37:47.583Z,1021.58
2016-12-14T03:38:28.088Z,1021.56
2016-12-14T03:39:08.562Z,1021.6
2016-12-14T03:39:49.057Z,1021.63
2016-12-14T03:40:29.544Z,1021.62
2016-12-14T03:41:09.976Z,1021.61
2016-12-14T03:41:50.444Z,1021.59
2016-12-14T03:42:30.919Z,1021.61
2016-12-14T03:43:11.396Z,1021.61
2016-12-14T03:43:51.879Z,1021.6
2016-12-14T03:44:32.302Z,1021.64
2016-12-14T03:45:12.769Z,1021.59
2016-12-14T03:45:53.269Z,1021.63
2016-12-14T03:46:33.766Z,1021.63
2016-12-14T03:47:14.249Z,1021.66
2016-12-14T03:47:54.697Z,1021.65
2016-12-14T03:48:35.175Z,1021.69
2016-12-14T03:49:15.671Z,1021.64
2016-12-14T03:49:56.121Z,1021.66
2016-12-14T03:50:36.613Z,1021.7
2016-12-14T03:51:17.082Z,1021.68
2016-12-14T03:51:57.530Z,1021.7
2016-12-14T03:52:38.007Z,1021.69
2016-12-14T03:53:18.576Z,1021.75
2016-12-14T03:53:59.057Z,1021.73
2016-12-14T03:54:39.475Z,1021.72
2016-12-14T03:55:19.936Z,1021.74
2016-12-14T03:56:00.429Z,1021.75
2016-12-14T03:56:40.861Z,1021.74
2016-12-14T03:57:21.348Z,1021.74
2016-12-14T03:58:01.796Z,1021.74
2016-12-14T03:58:42.242Z,1021.76
2016-12-14T03:59:22.713Z,1021.8
2016-12-14T04:00:03.160Z,1021.79
2016-12-14T04:00:43.670Z,1021.81
2016-12-14T04:01:24.153Z,1021.83
2016-12-14T04:02:04.563Z,1021.8
2016-12-14T04:02:45.017Z,1021.8
2016-12-14T04:03:25.473Z,1021.8
2016-12-14T04:04:05.944Z,1021.81
2016-12-14T04:04:46.410Z,1021.83
2016-12-14T04:05:26.874Z,1021.73
2016-12-14T04:06:07.382Z,1021.76
2016-12-14T04:06:47.813Z,1021.71
2016-12-14T04:07:28.281Z,1021.73
2016-12-14T04:08:08.742Z,1021.77
2016-12-14T04:08:49.202Z,1021.76
2016-12-14T04:09:29.664Z,1021.75
2016-12-14T04:10:10.190Z,1021.77
2016-12-14T04:10:50.777Z,1021.77
2016-12-14T04:11:31.293Z,1021.81
2016-12-14T04:12:11.773Z,1021.72
2016-12-14T04:12:52.213Z,1021.7
2016-12-14T04:13:32.682Z,1021.72
2016-12-14T04:14:13.173Z,1021.72
2016-12-14T04:14:53.653Z,1021.71
2016-12-14T04:15:34.116Z,1021.69
2016-12-14T04:16:14.591Z,1021.69
2016-12-14T04:16:55.046Z,1021.67
2016-12-14T04:17:35.513Z,1021.65
2016-12-14T04:18:15.980Z,1021.66
2016-12-14T04:18:56.464Z,1021.64
2016-12-14T04:19:36.927Z,1021.71
2016-12-14T04:20:17.386Z,1021.72
2016-12-14T04:20:57.846Z,1021.71
2016-12-14T04:21:38.336Z,1021.76
2016-12-14T04:22:18.857Z,1021.76
2016-12-14T04:22:59.321Z,1021.77
2016-12-14T04:23:39.805Z,1021.78
2016-12-14T04:24:20.251Z,1021.83
2016-12-14T04:25:00.722Z,1021.8
2016-12-14T04:25:41.154Z,1021.84
2016-12-14T04:26:21.623Z,1021.86
2016-12-14T04:27:02.123Z,1021.84
2016-12-14T04:27:42.561Z,1021.91
2016-12-14T04:28:23.030Z,1021.87
2016-12-14T04:29:03.521Z,1021.91
2016-12-14T04:29:43.992Z,1021.89
2016-12-14T04:30:24.418Z,1021.85
2016-12-14T04:31:04.873Z,1021.94
2016-12-14T04:31:45.331Z,1021.88
2016-12-14T04:32:25.826Z,1021.91
2016-12-14T04:33:06.291Z,1021.9
2016-12-14T04:33:46.762Z,1021.86
2016-12-14T04:34:27.258Z,1021.88
2016-12-14T04:35:07.704Z,1021.83
2016-12-14T04:35:48.175Z,1021.85
2016-12-14T04:36:28.638Z,1021.85
2016-12-14T04:37:09.095Z,1021.89
2016-12-14T04:37:49.613Z,1021.92
2016-12-14T04:38:30.049Z,1021.91
2016-12-14T04:39:10.543Z,1021.92
2016-12-14T04:39:50.978Z,1021.93
2016-12-14T04:40:31.444Z,1021.91
2016-12-14T04:41:11.924Z,1021.92
2016-12-14T04:41:52.377Z,1021.97
2016-12-14T04:42:32.855Z,1021.98
2016-12-14T04:43:13.301Z,1022
2016-12-14T04:43:53.775Z,1022.03
2016-12-14T04:44:34.243Z,1022.03
2016-12-14T04:45:14.719Z,1022.02
2016-12-14T04:45:55.142Z,1022.04
2016-12-14T04:46:35.626Z,1022.08
2016-12-14T04:47:16.072Z,1022.06
2016-12-14T04:47:56.558Z,1022.09
2016-12-14T04:48:37.006Z,1022.13
2016-12-14T04:49:17.531Z,1022.11
2016-12-14T04:49:58.018Z,1022.08
2016-12-14T04:50:38.450Z,1022.09
2016-12-14T04:51:18.906Z,1022.08
2016-12-14T04:51:59.330Z,1022.1
2016-12-14T04:52:39.803Z,1022.1
2016-12-14T04:53:20.285Z,1022.09
2016-12-14T04:54:00.752Z,1022.09
2016-12-14T04:54:41.234Z,1022.07
2016-12-14T04:55:21.693Z,1022.07
2016-12-14T04:56:02.170Z,1022.06
2016-12-14T04:56:42.644Z,1022.1
2016-12-14T04:57:23.106Z,1022.07
2016-12-14T04:58:03.571Z,1022.11
2016-12-14T04:58:44.099Z,1022.12
2016-12-14T04:59:24.559Z,1022.12
2016-12-14T05:00:05.043Z,1022.12
2016-12-14T05:00:45.508Z,1022.12
2016-12-14T05:01:25.969Z,1022.1
2016-12-14T05:02:06.471Z,1022.09
2016-12-14T05:02:46.884Z,1022.13
2016-12-14T05:03:27.377Z,1022.11
2016-12-14T05:04:07.848Z,1022.11
2016-12-14T05:04:48.292Z,1022.09
2016-12-14T05:05:28.775Z,1022.15
2016-12-14T05:06:09.261Z,1022.11
2016-12-14T05:06:49.707Z,1022.07
2016-12-14T05:07:30.177Z,1022.08
2016-12-14T05:08:10.670Z,1022.07
2016-12-14T05:08:51.117Z,1022.08
2016-12-14T05:09:31.565Z,1022.09
2016-12-14T05:10:12.022Z,1022.1
2016-12-14T05:10:52.491Z,1022.08
2016-12-14T05:11:32.966Z,1022.1
2016-12-14T05:12:13.440Z,1022.11
2016-12-14T05:12:53.950Z,1022.08
2016-12-14T05:13:34.423Z,1022.09
2016-12-14T05:14:14.876Z,1022.09
2016-12-14T05:14:55.316Z,1022.1
2016-12-14T05:15:35.802Z,1022.1
2016-12-14T05:16:16.273Z,1022.09
2016-12-14T05:16:56.782Z,1022.09
2016-12-14T05:17:37.224Z,1022.15
2016-12-14T05:18:17.687Z,1022.14
2016-12-14T05:18:58.182Z,1022.11
2016-12-14T05:19:40.051Z,1022.13
2016-12-14T05:20:20.549Z,1022.09
2016-12-14T05:21:01.028Z,1022.14
2016-12-14T05:21:41.533Z,1022.16
2016-12-14T05:22:22.011Z,1022.13
2016-12-14T05:23:02.508Z,1022.15
2016-12-14T05:23:43.003Z,1022.18
2016-12-14T05:24:23.514Z,1022.19
2016-12-14T05:25:03.983Z,1022.19
2016-12-14T05:25:44.512Z,1022.24
2016-12-14T05:26:24.986Z,1022.21
2016-12-14T05:27:05.509Z,1022.25
2016-12-14T05:27:46.004Z,1022.26
2016-12-14T05:28:26.509Z,1022.23
2016-12-14T05:29:06.981Z,1022.27
2016-12-14T05:29:47.459Z,1022.28
2016-12-14T05:30:27.961Z,1022.28
2016-12-14T05:32:43.998Z,1022.31
2016-12-14T05:33:24.487Z,1022.3
2016-12-14T05:34:04.972Z,1022.35
2016-12-14T05:34:45.650Z,1022.34
2016-12-14T05:35:26.118Z,1022.3
2016-12-14T05:36:06.619Z,1022.34
2016-12-14T05:36:47.141Z,1022.37
2016-12-14T05:37:27.628Z,1022.41
2016-12-14T05:38:08.265Z,1022.38
2016-12-14T05:38:48.814Z,1022.4
2016-12-14T05:39:30.148Z,1022.38
2016-12-14T05:40:10.795Z,1022.4
2016-12-14T05:40:51.257Z,1022.47
2016-12-14T05:41:31.769Z,1022.44
2016-12-14T05:42:12.274Z,1022.44
2016-12-14T05:42:52.765Z,1022.46
2016-12-14T05:43:33.251Z,1022.47
2016-12-14T05:44:13.727Z,1022.5
2016-12-14T05:44:54.227Z,1022.49
2016-12-14T05:45:34.769Z,1022.48
2016-12-14T05:46:15.530Z,1022.55
2016-12-14T05:46:55.917Z,1022.53
2016-12-14T05:47:36.415Z,1022.52
2016-12-14T05:48:16.914Z,1022.56
2016-12-14T05:48:57.421Z,1022.54
2016-12-14T05:49:37.928Z,1022.54
2016-12-14T05:50:18.448Z,1022.51
2016-12-14T05:50:58.926Z,1022.58
2016-12-14T05:51:39.448Z,1022.56
2016-12-14T05:52:19.921Z,1022.56
2016-12-14T05:53:00.405Z,1022.6
2016-12-14T05:53:40.933Z,1022.57
2016-12-14T05:54:21.404Z,1022.57
2016-12-14T05:55:02.067Z,1022.6
2016-12-14T05:55:42.541Z,1022.56
2016-12-14T05:56:23.028Z,1022.59
2016-12-14T05:57:03.522Z,1022.58
2016-12-14T05:57:44.027Z,1022.63
2016-12-14T05:58:24.506Z,1022.61
2016-12-14T05:59:04.995Z,1022.56
2016-12-14T05:59:45.471Z,1022.62
2016-12-14T06:00:25.987Z,1022.63
2016-12-14T06:01:06.470Z,1022.66
2016-12-14T06:01:46.972Z,1022.68
2016-12-14T06:02:27.492Z,1022.67
2016-12-14T06:03:07.978Z,1022.68
2016-12-14T06:03:49.124Z,1022.67
2016-12-14T06:04:29.622Z,1022.67
2016-12-14T06:05:10.134Z,1022.69
2016-12-14T06:05:50.588Z,1022.69
2016-12-14T06:06:31.085Z,1022.69
2016-12-14T06:07:11.577Z,1022.66
2016-12-14T06:07:52.088Z,1022.67
2016-12-14T06:08:33.258Z,1022.66
2016-12-14T06:09:13.744Z,1022.68
2016-12-14T06:09:54.233Z,1022.64
2016-12-14T06:10:34.751Z,1022.63
2016-12-14T06:11:15.233Z,1022.64
2016-12-14T06:11:55.730Z,1022.66
2016-12-14T06:12:36.220Z,1022.67
2016-12-14T06:13:16.731Z,1022.67
2016-12-14T06:13:57.225Z,1022.63
2016-12-14T06:14:37.709Z,1022.65
2016-12-14T06:15:18.171Z,1022.68
2016-12-14T06:15:58.655Z,1022.64
2016-12-14T06:16:39.170Z,1022.67
2016-12-14T06:17:19.667Z,1022.68
2016-12-14T06:18:00.158Z,1022.66
2016-12-14T06:18:40.644Z,1022.66
2016-12-14T06:19:21.278Z,1022.65
2016-12-14T06:20:01.802Z,1022.71
2016-12-14T06:20:42.334Z,1022.63
2016-12-14T06:21:22.791Z,1022.66
2016-12-14T06:22:03.285Z,1022.66
2016-12-14T06:22:43.789Z,1022.69
2016-12-14T06:23:24.295Z,1022.71
2016-12-14T06:24:04.770Z,1022.69
2016-12-14T06:24:45.264Z,1022.7
2016-12-14T06:25:25.759Z,1022.7
2016-12-14T06:26:06.241Z,1022.71
2016-12-14T06:26:46.732Z,1022.71
2016-12-14T06:27:27.239Z,1022.73
2016-12-14T06:28:07.767Z,1022.7
2016-12-14T06:28:48.237Z,1022.7
2016-12-14T06:29:28.737Z,1022.71
2016-12-14T06:30:09.228Z,1022.67
2016-12-14T06:30:49.716Z,1022.63
2016-12-14T06:31:30.230Z,1022.67
2016-12-14T06:32:10.717Z,1022.67
2016-12-14T06:32:51.202Z,1022.65
2016-12-14T06:33:31.709Z,1022.66
2016-12-14T06:34:12.221Z,1022.66
2016-12-14T06:34:52.713Z,1022.66
2016-12-14T06:35:33.176Z,1022.65
2016-12-14T06:36:13.660Z,1022.66
2016-12-14T06:36:54.162Z,1022.66
2016-12-14T06:37:34.668Z,1022.67
2016-12-14T06:38:15.170Z,1022.67
2016-12-14T06:38:55.642Z,1022.65
2016-12-14T06:39:36.121Z,1022.7
2016-12-14T06:40:16.604Z,1022.68
2016-12-14T06:40:57.086Z,1022.65
2016-12-14T06:41:37.579Z,1022.67
2016-12-14T06:42:18.086Z,1022.68
2016-12-14T06:42:58.572Z,1022.74
2016-12-14T06:43:39.083Z,1022.71
2016-12-14T06:44:19.572Z,1022.76
2016-12-14T06:45:00.083Z,1022.74
2016-12-14T06:45:40.529Z,1022.77
2016-12-14T06:46:21.021Z,1022.8
2016-12-14T06:47:01.504Z,1022.81
2016-12-14T06:47:41.997Z,1022.81
2016-12-14T06:48:22.497Z,1022.82
2016-12-14T06:49:02.986Z,1022.81
2016-12-14T06:49:43.479Z,1022.87
2016-12-14T06:50:23.976Z,1022.86
2016-12-14T06:51:04.476Z,1022.86
2016-12-14T06:51:44.950Z,1022.89
2016-12-14T06:52:25.462Z,1022.92
2016-12-14T06:53:05.935Z,1022.91
2016-12-14T06:53:46.436Z,1022.93
2016-12-14T06:54:26.928Z,1022.93
2016-12-14T06:55:07.400Z,1022.97
2016-12-14T06:55:47.897Z,1022.95
2016-12-14T06:56:28.395Z,1022.96
2016-12-14T06:57:09.741Z,1022.94
2016-12-14T06:57:49.915Z,1022.98
2016-12-14T06:58:30.416Z,1022.96
2016-12-14T06:59:10.925Z,1022.96
2016-12-14T06:59:51.408Z,1022.99
2016-12-14T07:00:31.901Z,1023.01
2016-12-14T07:01:12.427Z,1023.01
2016-12-14T07:01:52.933Z,1022.99
2016-12-14T07:02:33.427Z,1023.01
2016-12-14T07:03:13.951Z,1023.02
2016-12-14T07:03:54.432Z,1023.03
2016-12-14T07:04:34.929Z,1023.07
2016-12-14T07:05:15.434Z,1023.11
2016-12-14T07:05:55.939Z,1023.06
2016-12-14T07:06:36.410Z,1023.1
2016-12-14T07:07:16.929Z,1023.11
2016-12-14T07:07:57.422Z,1023.12
2016-12-14T07:08:37.929Z,1023.17
2016-12-14T07:09:18.384Z,1023.11
2016-12-14T07:09:58.870Z,1023.16
2016-12-14T07:10:40.941Z,1023.16
2016-12-14T07:11:21.439Z,1023.2
2016-12-14T07:12:01.905Z,1023.15
2016-12-14T07:12:42.395Z,1023.17
2016-12-14T07:13:22.872Z,1023.17
2016-12-14T07:14:03.342Z,1023.18
2016-12-14T07:14:43.852Z,1023.16
2016-12-14T07:15:24.327Z,1023.17
2016-12-14T07:16:04.831Z,1023.16
2016-12-14T07:16:45.310Z,1023.16
2016-12-14T07:17:25.815Z,1023.16
2016-12-14T07:18:06.308Z,1023.19
2016-12-14T07:18:46.807Z,1023.19
2016-12-14T07:19:27.294Z,1023.2
2016-12-14T07:20:07.834Z,1023.17
2016-12-14T07:20:48.288Z,1023.19
2016-12-14T07:21:28.789Z,1023.24
2016-12-14T07:22:09.263Z,1023.25
2016-12-14T07:22:49.737Z,1023.25
2016-12-14T07:23:30.227Z,1023.29
2016-12-14T07:24:10.730Z,1023.29
2016-12-14T07:24:51.237Z,1023.25
2016-12-14T07:25:31.739Z,1023.29
2016-12-14T07:26:12.232Z,1023.28
2016-12-14T07:26:52.694Z,1023.31
2016-12-14T07:27:33.202Z,1023.32
2016-12-14T07:28:13.696Z,1023.34
2016-12-14T07:28:54.168Z,1023.32
2016-12-14T07:29:34.667Z,1023.35
2016-12-14T07:30:15.136Z,1023.34
2016-12-14T07:30:55.642Z,1023.34
2016-12-14T07:31:36.139Z,1023.39
2016-12-14T07:32:16.639Z,1023.36
2016-12-14T07:32:57.142Z,1023.38
2016-12-14T07:33:39.691Z,1023.35
2016-12-14T07:34:19.679Z,1023.4
2016-12-14T07:35:00.171Z,1023.36
2016-12-14T07:35:40.663Z,1023.39
2016-12-14T07:36:21.159Z,1023.41
2016-12-14T07:37:01.643Z,1023.41
2016-12-14T07:37:42.433Z,1023.44
2016-12-14T07:38:22.927Z,1023.42
2016-12-14T07:39:04.270Z,1023.46
2016-12-14T07:39:45.134Z,1023.4
2016-12-14T07:40:25.983Z,1023.41
2016-12-14T07:41:06.844Z,1023.48
2016-12-14T07:41:48.429Z,1023.46
2016-12-14T07:42:29.584Z,1023.46
2016-12-14T07:43:10.383Z,1023.48
2016-12-14T07:43:50.930Z,1023.49
2016-12-14T07:44:31.428Z,1023.5
2016-12-14T07:45:11.953Z,1023.52
2016-12-14T07:45:52.467Z,1023.51
2016-12-14T07:46:32.981Z,1023.51
2016-12-14T07:47:13.573Z,1023.48
2016-12-14T07:47:54.091Z,1023.53
2016-12-14T07:48:34.831Z,1023.47
2016-12-14T07:49:15.338Z,1023.51
2016-12-14T07:49:55.839Z,1023.54
2016-12-14T07:50:36.323Z,1023.55
2016-12-14T07:51:16.811Z,1023.54
2016-12-14T07:51:57.326Z,1023.59
2016-12-14T07:52:37.858Z,1023.56
2016-12-14T07:53:18.421Z,1023.58
2016-12-14T07:53:58.912Z,1023.57
2016-12-14T07:54:39.391Z,1023.62
2016-12-14T07:55:19.880Z,1023.57
2016-12-14T07:56:00.432Z,1023.61
2016-12-14T07:56:40.909Z,1023.59
2016-12-14T07:57:21.419Z,1023.62
2016-12-14T07:58:01.921Z,1023.62
2016-12-14T07:58:42.395Z,1023.62
2016-12-14T07:59:22.884Z,1023.67
2016-12-14T08:00:03.399Z,1023.65
2016-12-14T08:00:43.885Z,1023.66
2016-12-14T08:01:24.411Z,1023.71
2016-12-14T08:02:04.897Z,1023.73
2016-12-14T08:02:45.473Z,1023.69
2016-12-14T08:03:25.925Z,1023.72
2016-12-14T08:04:06.449Z,1023.72
2016-12-14T08:04:46.952Z,1023.75
2016-12-14T08:05:27.762Z,1023.75
2016-12-14T08:06:08.855Z,1023.74
2016-12-14T08:06:50.013Z,1023.74
2016-12-14T08:07:31.251Z,1023.7
2016-12-14T08:08:12.356Z,1023.76
2016-12-14T08:10:47.410Z,1023.74
2016-12-14T08:11:28.081Z,1023.76
2016-12-14T08:12:08.584Z,1023.81
2016-12-14T08:12:49.127Z,1023.77
2016-12-14T08:13:29.616Z,1023.72
2016-12-14T08:14:10.277Z,1023.73
2016-12-14T08:14:51.065Z,1023.73
2016-12-14T08:15:31.692Z,1023.76
2016-12-14T08:16:12.204Z,1023.75
2016-12-14T08:16:52.715Z,1023.78
2016-12-14T08:17:33.257Z,1023.74
2016-12-14T08:18:13.961Z,1023.76
2016-12-14T08:18:54.462Z,1023.78